sensor_id;sensor_type;location;lat;lon;timestamp;temperature;humidity
14521;DHT22;7347;50.844;4.490;2024-03-08T10:43:13;8.40;99.90
14521;DHT22;7347;50.844;4.490;2024-03-08T10:45:47;8.40;99.90
14521;DHT22;7347;50.844;4.490;2024-03-08T10:48:26;8.60;99.90
14521;DHT22;7347;50.844;4.490;2024-03-08T10:50:57;8.60;99.90
14521;DHT22;7347;50.844;4.490;2024-03-08T10:53:27;8.60;99.90
14521;DHT22;7347;50.844;4.490;2024-03-08T10:55:56;8.60;99.90
14521;DHT22;7347;50.844;4.490;2024-03-08T10:58:26;8.80;99.90
14521;DHT22;7347;50.844;4.490;2024-03-08T11:00:55;8.80;99.90
14521;DHT22;7347;50.844;4.490;2024-03-08T11:03:44;8.80;99.90
14521;DHT22;7347;50.844;4.490;2024-03-08T11:06:16;8.90;99.90
14521;DHT22;7347;50.844;4.490;2024-03-08T11:08:44;8.80;99.90
14521;DHT22;7347;50.844;4.490;2024-03-08T11:11:25;9.00;99.90
14521;DHT22;7347;50.844;4.490;2024-03-08T11:13:57;9.10;99.90
14521;DHT22;7347;50.844;4.490;2024-03-08T11:16:38;9.10;99.90
14521;DHT22;7347;50.844;4.490;2024-03-08T11:19:26;9.20;99.90
14521;DHT22;7347;50.844;4.490;2024-03-08T11:22:01;9.20;99.90
14521;DHT22;7347;50.844;4.490;2024-03-08T11:24:33;9.10;99.90
14521;DHT22;7347;50.844;4.490;2024-03-08T11:27:03;9.20;99.90
14521;DHT22;7347;50.844;4.490;2024-03-08T11:29:37;9.20;99.90
14521;DHT22;7347;50.844;4.490;2024-03-08T11:32:10;9.30;99.90
14521;DHT22;7347;50.844;4.490;2024-03-08T11:34:37;9.30;99.90
14521;DHT22;7347;50.844;4.490;2024-03-08T11:37:05;9.40;99.90
14521;DHT22;7347;50.844;4.490;2024-03-08T11:39:35;9.50;99.90
14521;DHT22;7347;50.844;4.490;2024-03-08T11:42:04;9.50;99.90
14521;DHT22;7347;50.844;4.490;2024-03-08T11:44:31;9.50;99.90
14521;DHT22;7347;50.844;4.490;2024-03-08T11:46:59;9.50;99.90
14521;DHT22;7347;50.844;4.490;2024-03-08T11:49:26;9.40;99.90
14521;DHT22;7347;50.844;4.490;2024-03-08T11:51:53;9.60;99.90
14521;DHT22;7347;50.844;4.490;2024-03-08T11:54:21;9.70;99.90
14521;DHT22;7347;50.844;4.490;2024-03-08T11:56:51;9.80;99.90
14521;DHT22;7347;50.844;4.490;2024-03-08T11:59:20;9.90;99.90
14521;DHT22;7347;50.844;4.490;2024-03-08T12:02:00;9.90;99.90
14521;DHT22;7347;50.844;4.490;2024-03-08T12:04:28;9.80;99.90
14521;DHT22;7347;50.844;4.490;2024-03-08T12:06:55;9.90;99.90
14521;DHT22;7347;50.844;4.490;2024-03-08T12:09:21;10.00;99.90
14521;DHT22;7347;50.844;4.490;2024-03-08T12:11:49;10.00;99.90
14521;DHT22;7347;50.844;4.490;2024-03-08T12:14:16;10.10;99.90
14521;DHT22;7347;50.844;4.490;2024-03-08T12:16:44;10.20;99.90
14521;DHT22;7347;50.844;4.490;2024-03-08T12:19:12;10.30;99.90
14521;DHT22;7347;50.844;4.490;2024-03-08T12:21:39;10.20;99.90
14521;DHT22;7347;50.844;4.490;2024-03-08T12:24:15;10.40;99.90
14521;DHT22;7347;50.844;4.490;2024-03-08T12:26:46;10.30;99.90
14521;DHT22;7347;50.844;4.490;2024-03-08T12:29:18;10.30;99.90
14521;DHT22;7347;50.844;4.490;2024-03-08T12:31:46;10.30;99.90
14521;DHT22;7347;50.844;4.490;2024-03-08T12:34:15;10.40;99.90
14521;DHT22;7347;50.844;4.490;2024-03-08T12:36:46;10.60;99.90
14521;DHT22;7347;50.844;4.490;2024-03-08T12:39:17;10.80;99.90
14521;DHT22;7347;50.844;4.490;2024-03-08T12:41:48;10.70;99.90
14521;DHT22;7347;50.844;4.490;2024-03-08T12:44:15;10.70;99.90
14521;DHT22;7347;50.844;4.490;2024-03-08T12:46:44;10.60;99.90
14521;DHT22;7347;50.844;4.490;2024-03-08T12:49:11;10.70;99.90
14521;DHT22;7347;50.844;4.490;2024-03-08T12:51:39;10.70;99.90
14521;DHT22;7347;50.844;4.490;2024-03-08T12:54:07;10.70;99.90
14521;DHT22;7347;50.844;4.490;2024-03-08T12:56:35;10.90;99.90
14521;DHT22;7347;50.844;4.490;2024-03-08T12:59:04;11.10;99.90
14521;DHT22;7347;50.844;4.490;2024-03-08T13:01:31;11.20;99.90
14521;DHT22;7347;50.844;4.490;2024-03-08T13:03:58;11.10;99.90
14521;DHT22;7347;50.844;4.490;2024-03-08T13:06:26;11.00;99.90
14521;DHT22;7347;50.844;4.490;2024-03-08T13:08:55;11.10;99.90
14521;DHT22;7347;50.844;4.490;2024-03-08T13:11:22;11.20;99.90
14521;DHT22;7347;50.844;4.490;2024-03-08T13:13:50;11.20;99.90
14521;DHT22;7347;50.844;4.490;2024-03-08T13:16:17;11.30;99.90
14521;DHT22;7347;50.844;4.490;2024-03-08T13:18:46;11.40;99.90
14521;DHT22;7347;50.844;4.490;2024-03-08T13:21:15;11.40;99.90
14521;DHT22;7347;50.844;4.490;2024-03-08T13:23:45;11.30;99.90
14521;DHT22;7347;50.844;4.490;2024-03-08T13:26:16;11.50;99.90
14521;DHT22;7347;50.844;4.490;2024-03-08T13:28:43;11.60;99.90
14521;DHT22;7347;50.844;4.490;2024-03-08T13:31:11;11.60;99.90
14521;DHT22;7347;50.844;4.490;2024-03-08T13:33:40;11.60;99.90
14521;DHT22;7347;50.844;4.490;2024-03-08T13:36:08;11.70;99.90
14521;DHT22;7347;50.844;4.490;2024-03-08T13:38:41;11.70;99.90
14521;DHT22;7347;50.844;4.490;2024-03-08T13:41:09;11.80;99.90
14521;DHT22;7347;50.844;4.490;2024-03-08T13:43:38;11.80;99.90
14521;DHT22;7347;50.844;4.490;2024-03-08T13:46:06;11.80;99.90
14521;DHT22;7347;50.844;4.490;2024-03-08T13:48:33;11.80;99.90
14521;DHT22;7347;50.844;4.490;2024-03-08T13:51:00;11.90;99.90
14521;DHT22;7347;50.844;4.490;2024-03-08T13:53:27;11.90;99.90
14521;DHT22;7347;50.844;4.490;2024-03-08T13:55:54;11.90;99.90
14521;DHT22;7347;50.844;4.490;2024-03-08T13:58:22;11.90;99.90
14521;DHT22;7347;50.844;4.490;2024-03-08T14:00:50;11.90;99.90
14521;DHT22;7347;50.844;4.490;2024-03-08T14:03:17;11.90;99.90
14521;DHT22;7347;50.844;4.490;2024-03-08T14:05:44;12.00;99.90
14521;DHT22;7347;50.844;4.490;2024-03-08T14:08:12;12.00;99.90
14521;DHT22;7347;50.844;4.490;2024-03-08T14:10:39;12.10;99.90
14521;DHT22;7347;50.844;4.490;2024-03-08T14:13:08;12.10;99.90
14521;DHT22;7347;50.844;4.490;2024-03-08T14:15:35;12.10;99.90
14521;DHT22;7347;50.844;4.490;2024-03-08T14:18:04;12.10;99.90
14521;DHT22;7347;50.844;4.490;2024-03-08T14:20:32;12.20;99.90
14521;DHT22;7347;50.844;4.490;2024-03-08T14:22:59;12.20;99.90
14521;DHT22;7347;50.844;4.490;2024-03-08T14:25:26;12.30;99.90
14521;DHT22;7347;50.844;4.490;2024-03-08T14:27:55;12.30;99.90
14521;DHT22;7347;50.844;4.490;2024-03-08T14:30:24;12.40;99.90
14521;DHT22;7347;50.844;4.490;2024-03-08T14:33:00;12.60;99.90
14521;DHT22;7347;50.844;4.490;2024-03-08T14:35:29;12.50;99.90
14521;DHT22;7347;50.844;4.490;2024-03-08T14:37:56;12.50;99.90
14521;DHT22;7347;50.844;4.490;2024-03-08T14:40:24;12.60;99.90
14521;DHT22;7347;50.844;4.490;2024-03-08T14:42:51;12.70;99.90
14521;DHT22;7347;50.844;4.490;2024-03-08T14:45:18;12.60;99.90
14521;DHT22;7347;50.844;4.490;2024-03-08T14:47:46;12.60;99.90
14521;DHT22;7347;50.844;4.490;2024-03-08T14:50:16;12.60;99.90
14521;DHT22;7347;50.844;4.490;2024-03-08T14:52:44;12.60;99.90
14521;DHT22;7347;50.844;4.490;2024-03-08T14:55:14;12.60;99.90
14521;DHT22;7347;50.844;4.490;2024-03-08T14:57:41;12.60;99.90
14521;DHT22;7347;50.844;4.490;2024-03-08T15:00:12;12.70;99.90
14521;DHT22;7347;50.844;4.490;2024-03-08T15:02:43;12.70;99.90
14521;DHT22;7347;50.844;4.490;2024-03-08T15:05:10;12.60;99.90
14521;DHT22;7347;50.844;4.490;2024-03-08T15:07:38;12.60;99.90
14521;DHT22;7347;50.844;4.490;2024-03-08T15:10:08;12.70;99.90
14521;DHT22;7347;50.844;4.490;2024-03-08T15:12:40;12.70;99.90
14521;DHT22;7347;50.844;4.490;2024-03-08T15:15:08;12.70;99.90
14521;DHT22;7347;50.844;4.490;2024-03-08T15:17:36;12.70;99.90
14521;DHT22;7347;50.844;4.490;2024-03-08T15:20:06;12.70;99.90
14521;DHT22;7347;50.844;4.490;2024-03-08T15:22:41;12.60;99.90
14521;DHT22;7347;50.844;4.490;2024-03-08T15:25:09;12.50;99.90
14521;DHT22;7347;50.844;4.490;2024-03-08T15:27:42;12.60;99.90
14521;DHT22;7347;50.844;4.490;2024-03-08T15:30:10;12.50;99.90
14521;DHT22;7347;50.844;4.490;2024-03-08T15:32:39;12.60;99.90
14521;DHT22;7347;50.844;4.490;2024-03-08T15:35:07;12.50;99.90
14521;DHT22;7347;50.844;4.490;2024-03-08T15:37:39;12.50;99.90
14521;DHT22;7347;50.844;4.490;2024-03-08T15:40:10;12.50;99.90
14521;DHT22;7347;50.844;4.490;2024-03-08T15:42:51;12.50;99.90
14521;DHT22;7347;50.844;4.490;2024-03-08T15:45:21;12.40;99.90
14521;DHT22;7347;50.844;4.490;2024-03-08T15:47:49;12.50;99.90
14521;DHT22;7347;50.844;4.490;2024-03-08T15:50:16;12.40;99.90
14521;DHT22;7347;50.844;4.490;2024-03-08T15:52:44;12.50;99.90
14521;DHT22;7347;50.844;4.490;2024-03-08T15:55:16;12.40;99.90
14521;DHT22;7347;50.844;4.490;2024-03-08T15:57:46;12.30;99.90
14521;DHT22;7347;50.844;4.490;2024-03-08T16:00:15;12.30;99.90
14521;DHT22;7347;50.844;4.490;2024-03-08T16:02:56;12.30;99.90
14521;DHT22;7347;50.844;4.490;2024-03-08T16:05:23;12.20;99.90
14521;DHT22;7347;50.844;4.490;2024-03-08T16:07:50;12.20;99.90
14521;DHT22;7347;50.844;4.490;2024-03-08T16:10:18;12.20;99.90
14521;DHT22;7347;50.844;4.490;2024-03-08T16:12:45;12.10;99.90
14521;DHT22;7347;50.844;4.490;2024-03-08T16:15:12;12.10;99.90
14521;DHT22;7347;50.844;4.490;2024-03-08T16:17:39;12.10;99.90
14521;DHT22;7347;50.844;4.490;2024-03-08T16:20:06;12.10;99.90
14521;DHT22;7347;50.844;4.490;2024-03-08T16:22:37;12.10;99.90
14521;DHT22;7347;50.844;4.490;2024-03-08T16:25:05;12.00;99.90
14521;DHT22;7347;50.844;4.490;2024-03-08T16:27:39;11.90;99.90
14521;DHT22;7347;50.844;4.490;2024-03-08T16:30:07;11.90;99.90
14521;DHT22;7347;50.844;4.490;2024-03-08T16:32:36;11.80;99.90
14521;DHT22;7347;50.844;4.490;2024-03-08T16:35:04;11.80;99.90
14521;DHT22;7347;50.844;4.490;2024-03-08T16:37:36;11.70;99.90
14521;DHT22;7347;50.844;4.490;2024-03-08T16:40:04;11.70;99.90
14521;DHT22;7347;50.844;4.490;2024-03-08T16:42:31;11.70;99.90
14521;DHT22;7347;50.844;4.490;2024-03-08T16:44:59;11.60;99.90
14521;DHT22;7347;50.844;4.490;2024-03-08T16:47:26;11.50;99.90
14521;DHT22;7347;50.844;4.490;2024-03-08T16:49:53;11.40;99.90
14521;DHT22;7347;50.844;4.490;2024-03-08T16:52:20;11.40;99.90
14521;DHT22;7347;50.844;4.490;2024-03-08T16:54:48;11.40;99.90
14521;DHT22;7347;50.844;4.490;2024-03-08T16:57:15;11.40;99.90
14521;DHT22;7347;50.844;4.490;2024-03-08T16:59:42;11.20;99.90
14521;DHT22;7347;50.844;4.490;2024-03-08T17:02:10;11.20;99.90
14521;DHT22;7347;50.844;4.490;2024-03-08T17:04:37;11.20;99.90
14521;DHT22;7347;50.844;4.490;2024-03-08T17:07:04;11.10;99.90
14521;DHT22;7347;50.844;4.490;2024-03-08T17:09:34;11.10;99.90
14521;DHT22;7347;50.844;4.490;2024-03-08T17:12:03;11.00;99.90
14521;DHT22;7347;50.844;4.490;2024-03-08T17:14:32;11.00;99.90
14521;DHT22;7347;50.844;4.490;2024-03-08T17:17:03;10.90;99.90
14521;DHT22;7347;50.844;4.490;2024-03-08T17:19:31;10.80;99.90
14521;DHT22;7347;50.844;4.490;2024-03-08T17:21:59;10.80;99.90
14521;DHT22;7347;50.844;4.490;2024-03-08T17:24:29;10.80;99.90
14521;DHT22;7347;50.844;4.490;2024-03-08T17:26:56;10.80;99.90
14521;DHT22;7347;50.844;4.490;2024-03-08T17:29:23;10.80;99.90
14521;DHT22;7347;50.844;4.490;2024-03-08T17:31:51;10.80;99.90
14521;DHT22;7347;50.844;4.490;2024-03-08T17:34:19;10.60;99.90
14521;DHT22;7347;50.844;4.490;2024-03-08T17:36:47;10.60;99.90
14521;DHT22;7347;50.844;4.490;2024-03-08T17:39:15;10.60;99.90
14521;DHT22;7347;50.844;4.490;2024-03-08T17:41:45;10.50;99.90
14521;DHT22;7347;50.844;4.490;2024-03-08T17:44:16;10.40;99.90
14521;DHT22;7347;50.844;4.490;2024-03-08T17:46:43;10.30;99.90
14521;DHT22;7347;50.844;4.490;2024-03-08T17:49:11;10.20;99.90
14521;DHT22;7347;50.844;4.490;2024-03-08T17:51:38;10.20;99.90
14521;DHT22;7347;50.844;4.490;2024-03-08T17:54:07;10.20;99.90
14521;DHT22;7347;50.844;4.490;2024-03-08T17:56:37;10.30;99.90
14521;DHT22;7347;50.844;4.490;2024-03-08T17:59:04;10.10;99.90
14521;DHT22;7347;50.844;4.490;2024-03-08T18:01:33;10.10;99.90
14521;DHT22;7347;50.844;4.490;2024-03-08T18:04:02;10.10;99.90
14521;DHT22;7347;50.844;4.490;2024-03-08T18:06:32;10.00;99.90
14521;DHT22;7347;50.844;4.490;2024-03-08T18:09:03;9.90;99.90
14521;DHT22;7347;50.844;4.490;2024-03-08T18:11:36;9.90;99.90
14521;DHT22;7347;50.844;4.490;2024-03-08T18:14:04;9.90;99.90
14521;DHT22;7347;50.844;4.490;2024-03-08T18:16:34;9.80;99.90
14521;DHT22;7347;50.844;4.490;2024-03-08T18:19:04;9.80;99.90
14521;DHT22;7347;50.844;4.490;2024-03-08T18:21:33;9.70;99.90
14521;DHT22;7347;50.844;4.490;2024-03-08T18:24:02;9.60;99.90
14521;DHT22;7347;50.844;4.490;2024-03-08T18:26:29;9.60;99.90
14521;DHT22;7347;50.844;4.490;2024-03-08T18:29:00;9.60;99.90
14521;DHT22;7347;50.844;4.490;2024-03-08T18:31:29;9.50;99.90
14521;DHT22;7347;50.844;4.490;2024-03-08T18:33:57;9.40;99.90
14521;DHT22;7347;50.844;4.490;2024-03-08T18:36:25;9.50;99.90
14521;DHT22;7347;50.844;4.490;2024-03-08T18:38:52;9.40;99.90
14521;DHT22;7347;50.844;4.490;2024-03-08T18:41:19;9.30;99.90
14521;DHT22;7347;50.844;4.490;2024-03-08T18:43:46;9.40;99.90
14521;DHT22;7347;50.844;4.490;2024-03-08T18:46:14;9.40;99.90
14521;DHT22;7347;50.844;4.490;2024-03-08T18:48:41;9.40;99.90
14521;DHT22;7347;50.844;4.490;2024-03-08T18:51:07;9.40;99.90
14521;DHT22;7347;50.844;4.490;2024-03-08T18:53:34;9.30;99.90
14521;DHT22;7347;50.844;4.490;2024-03-08T18:56:07;9.30;99.90
14521;DHT22;7347;50.844;4.490;2024-03-08T18:58:34;9.30;99.90
14521;DHT22;7347;50.844;4.490;2024-03-08T19:01:01;9.30;99.90
14521;DHT22;7347;50.844;4.490;2024-03-08T19:03:32;9.20;99.90
14521;DHT22;7347;50.844;4.490;2024-03-08T19:06:00;9.10;99.90
14521;DHT22;7347;50.844;4.490;2024-03-08T19:08:27;9.10;99.90
14521;DHT22;7347;50.844;4.490;2024-03-08T19:10:55;9.10;99.90
14521;DHT22;7347;50.844;4.490;2024-03-08T19:13:23;9.00;99.90
14521;DHT22;7347;50.844;4.490;2024-03-08T19:15:49;9.00;99.90
14521;DHT22;7347;50.844;4.490;2024-03-08T19:18:18;9.00;99.90
14521;DHT22;7347;50.844;4.490;2024-03-08T19:20:46;8.90;99.90
14521;DHT22;7347;50.844;4.490;2024-03-08T19:23:13;8.80;99.90
14521;DHT22;7347;50.844;4.490;2024-03-08T19:25:40;8.80;99.90
14521;DHT22;7347;50.844;4.490;2024-03-08T19:28:09;8.70;99.90
14521;DHT22;7347;50.844;4.490;2024-03-08T19:30:38;8.60;99.90
14521;DHT22;7347;50.844;4.490;2024-03-08T19:33:06;8.60;99.90
14521;DHT22;7347;50.844;4.490;2024-03-08T19:35:37;8.50;99.90
14521;DHT22;7347;50.844;4.490;2024-03-08T19:38:05;8.50;99.90
14521;DHT22;7347;50.844;4.490;2024-03-08T19:40:36;8.40;99.90
14521;DHT22;7347;50.844;4.490;2024-03-08T19:43:06;8.40;99.90
14521;DHT22;7347;50.844;4.490;2024-03-08T19:45:36;8.40;99.90
14521;DHT22;7347;50.844;4.490;2024-03-08T19:48:05;8.40;99.90
14521;DHT22;7347;50.844;4.490;2024-03-08T19:50:35;8.40;99.90
14521;DHT22;7347;50.844;4.490;2024-03-08T19:53:08;8.40;99.90
14521;DHT22;7347;50.844;4.490;2024-03-08T19:55:36;8.40;99.90
14521;DHT22;7347;50.844;4.490;2024-03-08T19:58:04;8.50;99.90
14521;DHT22;7347;50.844;4.490;2024-03-08T20:00:32;8.50;99.90
14521;DHT22;7347;50.844;4.490;2024-03-08T20:03:00;8.60;99.90
14521;DHT22;7347;50.844;4.490;2024-03-08T20:05:28;8.60;99.90
14521;DHT22;7347;50.844;4.490;2024-03-08T20:07:56;8.60;99.90
14521;DHT22;7347;50.844;4.490;2024-03-08T20:10:31;8.70;99.90
14521;DHT22;7347;50.844;4.490;2024-03-08T20:13:02;8.70;99.90
14521;DHT22;7347;50.844;4.490;2024-03-08T20:15:33;8.80;99.90
14521;DHT22;7347;50.844;4.490;2024-03-08T20:18:03;8.70;99.90
14521;DHT22;7347;50.844;4.490;2024-03-08T20:20:31;8.80;99.90
14521;DHT22;7347;50.844;4.490;2024-03-08T20:23:00;8.80;99.90
14521;DHT22;7347;50.844;4.490;2024-03-08T20:25:30;8.90;99.90
14521;DHT22;7347;50.844;4.490;2024-03-08T20:27:59;8.90;99.90
14521;DHT22;7347;50.844;4.490;2024-03-08T20:30:27;8.90;99.90
14521;DHT22;7347;50.844;4.490;2024-03-08T20:32:56;8.90;99.90
14521;DHT22;7347;50.844;4.490;2024-03-08T20:35:25;8.80;99.90
14521;DHT22;7347;50.844;4.490;2024-03-08T20:37:55;8.90;99.90
14521;DHT22;7347;50.844;4.490;2024-03-08T20:40:22;8.80;99.90
14521;DHT22;7347;50.844;4.490;2024-03-08T20:42:55;8.70;99.90
14521;DHT22;7347;50.844;4.490;2024-03-08T20:45:23;8.70;99.90
14521;DHT22;7347;50.844;4.490;2024-03-08T20:47:51;8.70;99.90
14521;DHT22;7347;50.844;4.490;2024-03-08T20:50:18;8.70;99.90
14521;DHT22;7347;50.844;4.490;2024-03-08T20:52:49;8.80;99.90
14521;DHT22;7347;50.844;4.490;2024-03-08T20:55:18;8.90;99.90
14521;DHT22;7347;50.844;4.490;2024-03-08T20:57:47;8.90;99.90
14521;DHT22;7347;50.844;4.490;2024-03-08T21:00:17;8.90;99.90
14521;DHT22;7347;50.844;4.490;2024-03-08T21:03:01;8.90;99.90
14521;DHT22;7347;50.844;4.490;2024-03-08T21:05:29;8.90;99.90
14521;DHT22;7347;50.844;4.490;2024-03-08T21:07:57;8.90;99.90
14521;DHT22;7347;50.844;4.490;2024-03-08T21:10:25;8.90;99.90
14521;DHT22;7347;50.844;4.490;2024-03-08T21:12:55;8.80;99.90
14521;DHT22;7347;50.844;4.490;2024-03-08T21:15:23;8.90;99.90
14521;DHT22;7347;50.844;4.490;2024-03-08T21:17:51;9.00;99.90
14521;DHT22;7347;50.844;4.490;2024-03-08T21:20:18;8.90;99.90
14521;DHT22;7347;50.844;4.490;2024-03-08T21:22:46;8.90;99.90
14521;DHT22;7347;50.844;4.490;2024-03-08T21:25:13;8.80;99.90
14521;DHT22;7347;50.844;4.490;2024-03-08T21:27:40;8.80;99.90
14521;DHT22;7347;50.844;4.490;2024-03-08T21:30:09;8.70;99.90
14521;DHT22;7347;50.844;4.490;2024-03-08T21:32:40;8.80;99.90
14521;DHT22;7347;50.844;4.490;2024-03-08T21:35:08;8.70;99.90
14521;DHT22;7347;50.844;4.490;2024-03-08T21:37:35;8.60;99.90
14521;DHT22;7347;50.844;4.490;2024-03-08T21:40:02;8.60;99.90
14521;DHT22;7347;50.844;4.490;2024-03-08T21:42:32;8.60;99.90
14521;DHT22;7347;50.844;4.490;2024-03-08T21:44:59;8.50;99.90
14521;DHT22;7347;50.844;4.490;2024-03-08T21:47:29;8.50;99.90
14521;DHT22;7347;50.844;4.490;2024-03-08T21:49:57;8.50;99.90
14521;DHT22;7347;50.844;4.490;2024-03-08T21:52:24;8.50;99.90
14521;DHT22;7347;50.844;4.490;2024-03-08T21:54:52;8.50;99.90
14521;DHT22;7347;50.844;4.490;2024-03-08T21:57:19;8.40;99.90
14521;DHT22;7347;50.844;4.490;2024-03-08T21:59:46;8.40;99.90
14521;DHT22;7347;50.844;4.490;2024-03-08T22:02:13;8.30;99.90
14521;DHT22;7347;50.844;4.490;2024-03-08T22:04:40;8.30;99.90
14521;DHT22;7347;50.844;4.490;2024-03-08T22:07:09;8.40;99.90
14521;DHT22;7347;50.844;4.490;2024-03-08T22:09:37;8.40;99.90
14521;DHT22;7347;50.844;4.490;2024-03-08T22:12:04;8.30;99.90
14521;DHT22;7347;50.844;4.490;2024-03-08T22:14:34;8.20;99.90
14521;DHT22;7347;50.844;4.490;2024-03-08T22:17:01;8.20;99.90
